Time;durP1;ratioP1;P1;durP2;ratioP2;P2;SDS_P1;SDS_P2;PMS_P1;PMS_P2;Temp;Humidity;BMP_temperature;BMP_pressure;BME280_temperature;BME280_humidity;BME280_pressure;Samples;Min_cycle;Max_cycle;Signal;HPM_P1;HPM_P2
2021/04/08 00:02:19;;;;;;;15.32;12.60;;;19.30;81.20;;;;;;4933442;28;95803;-44
2021/04/08 00:04:49;;;;;;;17.27;12.93;;;19.40;81.30;;;;;;4934353;28;95999;-44
2021/04/08 00:07:20;;;;;;;15.50;12.90;;;19.40;81.30;;;;;;4932689;28;96976;-54
2021/04/08 00:09:50;;;;;;;;;;;19.40;81.30;;;;;;4940349;28;96188;-44
2021/04/08 00:12:20;;;;;;;17.67;13.52;;;19.40;81.30;;;;;;4934707;28;95354;-46
2021/04/08 00:14:49;;;;;;;15.77;12.30;;;19.40;81.30;;;;;;4933443;28;95816;-52
2021/04/08 00:17:19;;;;;;;14.45;12.25;;;19.40;81.30;;;;;;4930541;28;95950;-54
2021/04/08 00:19:49;;;;;;;14.77;11.90;;;19.40;81.20;;;;;;4932361;28;95936;-45
2021/04/08 00:22:19;;;;;;;13.18;11.55;;;19.40;81.20;;;;;;4936437;28;95687;-55
2021/04/08 00:24:49;;;;;;;14.32;12.82;;;19.40;81.10;;;;;;4936321;28;95258;-56
2021/04/08 00:27:20;;;;;;;;;;;19.40;81.10;;;;;;4938683;28;95326;-52
2021/04/08 00:29:51;;;;;;;13.13;11.83;;;19.40;81.10;;;;;;4934829;28;98687;-54
2021/04/08 00:32:24;;;;;;;12.20;10.38;;;19.50;81.20;;;;;;4935860;28;97530;-44
2021/04/08 00:34:54;;;;;;;12.27;10.98;;;19.40;81.10;;;;;;4942797;28;95535;-54
2021/04/08 00:37:24;;;;;;;11.90;10.70;;;19.40;81.00;;;;;;4943801;28;97921;-54
2021/04/08 00:39:54;;;;;;;11.43;10.20;;;19.40;81.10;;;;;;4932015;28;96434;-51
2021/04/08 00:42:24;;;;;;;12.95;11.10;;;19.50;81.20;;;;;;4942743;28;95782;-53
2021/04/08 00:44:56;;;;;;;12.85;11.25;;;19.50;81.10;;;;;;4935999;28;95281;-53
2021/04/08 00:47:28;;;;;;;13.98;10.95;;;19.50;81.00;;;;;;4934512;28;95695;-52
2021/04/08 00:49:58;;;;;;;12.15;10.77;;;19.60;80.90;;;;;;4946499;28;95944;-44
2021/04/08 00:52:29;;;;;;;13.05;11.13;;;19.50;80.90;;;;;;4931106;28;96065;-52
2021/04/08 00:54:59;;;;;;;11.70;10.48;;;19.60;80.90;;;;;;4947708;28;95907;-55
2021/04/08 00:57:29;;;;;;;12.35;11.05;;;19.60;80.90;;;;;;4944623;28;95271;-44
2021/04/08 01:00:01;;;;;;;11.70;10.50;;;19.60;80.90;;;;;;4946751;28;95908;-44
2021/04/08 01:02:31;;;;;;;11.18;10.13;;;19.70;80.90;;;;;;4929668;28;98543;-54
2021/04/08 01:05:04;;;;;;;10.75;9.65;;;19.70;80.90;;;;;;4942046;28;95735;-44
2021/04/08 01:07:37;;;;;;;11.07;9.88;;;19.70;80.90;;;;;;4942445;28;95714;-45
2021/04/08 01:10:10;;;;;;;11.70;9.88;;;19.70;80.80;;;;;;4948111;28;96730;-44
2021/04/08 01:12:40;;;;;;;10.98;9.90;;;19.80;80.80;;;;;;4935072;28;95854;-44
2021/04/08 01:15:11;;;;;;;11.05;9.60;;;19.80;80.80;;;;;;4940949;28;95758;-53
2021/04/08 01:17:59;;;;;;;10.67;9.63;;;19.80;80.70;;;;;;4931736;28;96260;-44
2021/04/08 01:20:46;;;;;;;10.40;9.40;;;19.90;80.70;;;;;;4939434;28;99179;-44
2021/04/08 01:23:31;;;;;;;10.20;9.13;;;19.90;80.50;;;;;;4943404;28;97079;-44
2021/04/08 01:26:44;;;;;;;11.95;10.75;;;20.00;80.50;;;;;;4943967;28;95629;-44
2021/04/08 01:29:39;;;;;;;10.30;8.75;;;20.00;80.40;;;;;;4928419;28;95800;-44
2021/04/08 01:32:11;;;;;;;12.13;8.63;;;20.00;80.30;;;;;;4934478;28;97756;-44
2021/04/08 01:34:44;;;;;;;8.77;7.88;;;20.10;80.30;;;;;;4934343;28;95595;-44
2021/04/08 01:37:22;;;;;;;9.60;8.35;;;20.10;80.10;;;;;;4935161;28;95947;-44
2021/04/08 01:39:53;;;;;;;8.82;7.93;;;20.10;80.00;;;;;;4942039;28;95578;-45
2021/04/08 01:42:26;;;;;;;8.85;7.57;;;20.20;79.90;;;;;;4937701;28;96260;-44
2021/04/08 01:45:00;;;;;;;8.98;8.02;;;20.20;79.90;;;;;;4937471;28;95856;-52
2021/04/08 01:47:32;;;;;;;9.60;7.50;;;20.20;79.80;;;;;;4939363;28;95435;-44
2021/04/08 01:50:05;;;;;;;8.40;7.60;;;20.30;79.70;;;;;;4942231;28;95998;-44
2021/04/08 01:52:38;;;;;;;8.27;7.47;;;20.30;79.50;;;;;;4939638;28;96566;-44
2021/04/08 01:55:09;;;;;;;9.15;7.50;;;20.40;79.40;;;;;;4935222;28;96086;-44
2021/04/08 01:57:41;;;;;;;7.68;6.90;;;20.40;79.60;;;;;;4938174;28;95898;-44
2021/04/08 02:00:13;;;;;;;9.05;7.60;;;20.40;79.20;;;;;;4932924;28;95325;-44
2021/04/08 02:02:46;;;;;;;8.70;7.38;;;20.50;79.10;;;;;;4940446;28;102374;-44
2021/04/08 02:05:17;;;;;;;7.50;6.80;;;20.50;79.10;;;;;;4938433;28;95371;-44
2021/04/08 02:07:51;;;;;;;7.38;6.68;;;20.50;78.90;;;;;;4935231;28;95620;-44
2021/04/08 02:10:27;;;;;;;7.20;6.50;;;20.60;79.00;;;;;;4934225;28;98358;-44
2021/04/08 02:12:59;;;;;;;6.90;6.20;;;20.60;78.80;;;;;;4938707;28;95955;-44
2021/04/08 02:15:30;;;;;;;6.38;5.72;;;20.60;78.80;;;;;;4935298;28;95642;-44
2021/04/08 02:18:03;;;;;;;7.50;6.80;;;20.70;78.70;;;;;;4939540;28;95601;-44
2021/04/08 02:20:36;;;;;;;8.00;6.75;;;20.70;78.70;;;;;;4935159;28;95784;-44
2021/04/08 02:23:06;;;;;;;7.10;6.50;;;20.80;78.50;;;;;;4943824;28;95932;-44
2021/04/08 02:25:38;;;;;;;6.72;6.03;;;20.80;78.40;;;;;;4934641;28;95725;-44
2021/04/08 02:28:11;;;;;;;6.72;6.07;;;20.80;78.30;;;;;;4941440;28;95766;-44
2021/04/08 02:30:47;;;;;;;8.00;6.28;;;20.80;78.20;;;;;;4932619;28;95267;-45
2021/04/08 02:33:26;;;;;;;7.65;6.25;;;20.90;78.20;;;;;;4940334;28;95876;-44
2021/04/08 02:36:00;;;;;;;7.65;6.18;;;20.90;78.10;;;;;;4939420;28;95383;-44
2021/04/08 02:38:35;;;;;;;7.07;6.38;;;21.00;78.10;;;;;;4945677;28;95699;-44
2021/04/08 02:41:08;;;;;;;6.78;5.90;;;21.00;78.00;;;;;;4935970;28;95677;-44
2021/04/08 02:43:38;;;;;;;6.03;5.43;;;21.00;77.90;;;;;;4935189;28;96984;-44
2021/04/08 02:46:10;;;;;;;6.70;6.00;;;21.10;77.90;;;;;;4932979;28;95582;-44
2021/04/08 02:48:42;;;;;;;6.07;5.47;;;21.10;77.90;;;;;;4942870;28;95761;-44
2021/04/08 02:51:26;;;;;;;5.97;5.38;;;21.20;77.70;;;;;;4937673;28;95539;-44
2021/04/08 02:53:59;;;;;;;5.82;5.25;;;21.20;77.70;;;;;;4932841;28;96556;-44
2021/04/08 02:56:46;;;;;;;5.45;4.95;;;21.20;77.60;;;;;;4936842;28;96105;-44
2021/04/08 02:59:51;;;;;;;5.75;5.25;;;21.30;77.60;;;;;;4945785;28;95307;-44
2021/04/08 03:02:27;;;;;;;6.68;5.22;;;21.30;77.50;;;;;;4927504;28;97245;-51
2021/04/08 03:04:58;;;;;;;6.20;5.60;;;21.30;77.50;;;;;;4933444;28;95910;-55
2021/04/08 03:07:40;;;;;;;5.95;5.45;;;21.40;77.30;;;;;;4938061;28;95766;-52
2021/04/08 03:10:14;;;;;;;5.10;4.70;;;21.40;77.30;;;;;;4936411;28;95581;-44
2021/04/08 03:12:48;;;;;;;5.80;5.20;;;21.40;77.10;;;;;;4934847;28;95249;-51
2021/04/08 03:15:29;;;;;;;5.18;4.68;;;21.50;77.20;;;;;;4927384;28;95940;-53
2021/04/08 03:18:00;;;;;;;5.55;5.05;;;21.50;77.10;;;;;;4936384;28;95306;-53
2021/04/08 03:20:31;;;;;;;5.57;5.07;;;21.50;77.00;;;;;;4943272;28;98353;-51
2021/04/08 03:23:05;;;;;;;5.60;5.03;;;21.60;77.00;;;;;;4946766;28;95735;-44
2021/04/08 03:25:35;;;;;;;4.90;4.45;;;21.60;76.80;;;;;;4942563;28;96647;-52
2021/04/08 03:28:07;;;;;;;5.22;4.18;;;21.70;76.70;;;;;;4943264;28;95703;-53
2021/04/08 03:30:40;;;;;;;5.13;4.47;;;21.70;76.70;;;;;;4932987;28;96855;-53
2021/04/08 03:33:15;;;;;;;6.63;4.60;;;21.70;76.60;;;;;;4935593;28;95455;-52
2021/04/08 03:35:49;;;;;;;5.40;4.90;;;21.80;76.60;;;;;;4938823;28;96810;-53
2021/04/08 03:38:23;;;;;;;5.10;4.57;;;21.80;76.40;;;;;;4934375;28;95857;-52
2021/04/08 03:40:53;;;;;;;5.45;4.43;;;21.80;76.20;;;;;;4941562;28;95288;-55
2021/04/08 03:43:24;;;;;;;4.88;4.47;;;21.80;76.00;;;;;;4937559;28;95583;-53
2021/04/08 03:46:04;;;;;;;5.25;4.47;;;21.90;76.10;;;;;;4928457;28;95843;-52
2021/04/08 03:48:36;;;;;;;6.00;5.30;;;21.90;76.10;;;;;;4935662;28;95632;-51
2021/04/08 03:51:09;;;;;;;;;;;21.90;75.90;;;;;;4935718;28;95638;-44
2021/04/08 03:53:40;;;;;;;4.53;4.13;;;21.90;75.90;;;;;;4942202;28;101099;-53
2021/04/08 03:56:14;;;;;;;4.80;4.40;;;22.00;75.80;;;;;;4934955;28;96373;-53
2021/04/08 03:58:44;;;;;;;4.88;4.47;;;22.00;75.70;;;;;;4933048;28;101927;-52
2021/04/08 04:01:17;;;;;;;4.60;3.95;;;22.00;75.60;;;;;;4935942;28;98119;-52
2021/04/08 04:03:49;;;;;;;6.05;5.40;;;22.10;75.60;;;;;;4936436;28;102760;-54
2021/04/08 04:06:19;;;;;;;4.65;3.85;;;22.10;75.50;;;;;;4934108;28;96474;-51
2021/04/08 04:08:49;;;;;;;4.75;3.50;;;22.10;75.30;;;;;;4937768;28;96487;-43
2021/04/08 04:11:21;;;;;;;4.45;3.80;;;22.10;75.20;;;;;;4933253;28;96020;-53
2021/04/08 04:13:52;;;;;;;6.33;3.93;;;22.20;75.10;;;;;;4939122;28;95760;-51
2021/04/08 04:16:23;;;;;;;4.35;4.00;;;22.20;74.90;;;;;;4931263;28;95906;-51
2021/04/08 04:18:54;;;;;;;4.53;4.13;;;22.20;75.00;;;;;;4943304;28;97150;-50
2021/04/08 04:21:24;;;;;;;4.50;3.92;;;22.20;74.90;;;;;;4945200;28;95337;-51
2021/04/08 04:23:53;;;;;;;4.20;3.80;;;22.30;74.70;;;;;;4933428;28;95321;-51
2021/04/08 04:26:25;;;;;;;5.43;4.18;;;22.30;74.70;;;;;;4938861;28;95831;-50
2021/04/08 04:28:56;;;;;;;4.53;4.13;;;22.40;74.60;;;;;;4953335;28;97387;-51
2021/04/08 04:31:28;;;;;;;4.97;4.47;;;22.40;74.40;;;;;;4935432;28;96141;-50
2021/04/08 04:33:58;;;;;;;4.22;3.83;;;22.40;74.50;;;;;;4939392;28;95829;-43
2021/04/08 04:36:29;;;;;;;4.47;4.07;;;22.40;74.40;;;;;;4943733;28;95901;-43
2021/04/08 04:39:02;;;;;;;4.28;3.88;;;22.40;74.10;;;;;;4938192;28;97569;-43
2021/04/08 04:41:31;;;;;;;4.43;4.03;;;22.40;74.10;;;;;;4937791;28;95966;-50
2021/04/08 04:44:01;;;;;;;4.35;3.88;;;22.50;74.30;;;;;;4939704;28;95325;-52
2021/04/08 04:46:33;;;;;;;4.25;3.83;;;22.50;74.20;;;;;;4936791;28;95671;-54
2021/04/08 04:49:05;;;;;;;6.03;4.10;;;22.50;74.00;;;;;;4945817;28;95263;-43
2021/04/08 04:51:35;;;;;;;4.00;3.45;;;22.50;74.00;;;;;;4937566;28;95726;-51
2021/04/08 04:54:05;;;;;;;3.75;3.45;;;22.50;73.80;;;;;;4952443;28;96127;-43
2021/04/08 04:56:34;;;;;;;4.60;3.60;;;22.60;73.90;;;;;;4936530;28;96506;-45
2021/04/08 04:59:05;;;;;;;4.18;3.78;;;22.60;73.80;;;;;;4936208;28;95296;-50
2021/04/08 05:01:36;;;;;;;4.43;4.03;;;22.60;73.70;;;;;;4930572;28;97882;-51
2021/04/08 05:04:05;;;;;;;;;;;22.60;73.70;;;;;;4943870;28;95733;-43
2021/04/08 05:06:36;;;;;;;3.75;3.45;;;22.60;73.40;;;;;;4938851;28;96592;-53
2021/04/08 05:09:05;;;;;;;;;;;22.60;73.50;;;;;;4943404;28;95748;-43
2021/04/08 05:11:36;;;;;;;3.83;3.53;;;22.60;73.40;;;;;;4938898;28;95255;-51
2021/04/08 05:14:06;;;;;;;4.10;3.78;;;22.60;73.20;;;;;;4936266;28;95789;-43
2021/04/08 05:16:36;;;;;;;4.15;3.75;;;22.60;73.20;;;;;;4934276;28;95966;-50
2021/04/08 05:19:05;;;;;;;4.03;3.63;;;22.60;73.00;;;;;;4939592;28;96040;-52
2021/04/08 05:21:35;;;;;;;6.50;3.85;;;22.60;73.00;;;;;;4937910;28;95604;-50
2021/04/08 05:24:05;;;;;;;4.05;3.65;;;22.60;72.70;;;;;;4948745;28;95844;-53
2021/04/08 05:26:36;;;;;;;3.83;3.53;;;22.70;72.70;;;;;;4945825;28;96781;-43
2021/04/08 05:29:06;;;;;;;4.85;4.00;;;22.70;72.80;;;;;;4942562;28;95390;-50
2021/04/08 05:31:36;;;;;;;5.00;4.03;;;22.70;72.70;;;;;;4935497;28;95387;-43
2021/04/08 05:34:07;;;;;;;4.28;3.83;;;22.70;72.60;;;;;;4941807;28;95815;-43
2021/04/08 05:36:38;;;;;;;4.35;4.00;;;22.70;72.60;;;;;;4938630;28;96712;-43
2021/04/08 05:39:07;;;;;;;4.60;4.20;;;22.80;72.50;;;;;;4945069;28;96622;-52
2021/04/08 05:41:37;;;;;;;4.03;3.72;;;22.70;72.50;;;;;;4944158;28;96952;-53
2021/04/08 05:44:07;;;;;;;4.60;4.07;;;22.70;72.50;;;;;;4947986;28;95907;-43
2021/04/08 05:46:38;;;;;;;;;;;22.80;72.50;;;;;;4935073;28;95917;-43
2021/04/08 05:49:09;;;;;;;4.10;3.70;;;22.80;72.40;;;;;;4942965;28;98274;-51
2021/04/08 05:51:39;;;;;;;;;;;22.80;72.40;;;;;;4947571;28;95735;-44
2021/04/08 05:54:09;;;;;;;5.28;3.50;;;22.80;72.30;;;;;;4936252;28;97127;-53
2021/04/08 05:56:40;;;;;;;5.20;4.35;;;22.80;72.30;;;;;;4942747;28;95899;-51
2021/04/08 05:59:09;;;;;;;5.00;4.50;;;22.80;72.20;;;;;;4941887;28;96541;-43
2021/04/08 06:01:39;;;;;;;4.88;4.38;;;22.80;72.20;;;;;;4945437;28;95951;-53
2021/04/08 06:04:08;;;;;;;4.68;3.97;;;22.80;72.10;;;;;;4977381;28;96058;-53
2021/04/08 06:06:38;;;;;;;4.15;3.63;;;22.80;71.80;;;;;;4951682;28;96374;-42
2021/04/08 06:09:09;;;;;;;6.13;4.60;;;22.80;71.50;;;;;;4945180;28;95855;-51
2021/04/08 06:11:39;;;;;;;5.05;4.50;;;22.80;71.40;;;;;;4941619;28;95692;-43
2021/04/08 06:14:09;;;;;;;4.28;3.97;;;22.80;71.10;;;;;;4946399;28;96357;-45
2021/04/08 06:16:41;;;;;;;6.30;4.75;;;22.70;71.00;;;;;;4943890;28;98202;-52
2021/04/08 06:19:12;;;;;;;4.63;3.90;;;22.70;70.20;;;;;;4942224;28;97327;-47
2021/04/08 06:21:42;;;;;;;4.50;4.10;;;22.70;70.30;;;;;;4948138;28;95897;-51
2021/04/08 06:24:12;;;;;;;4.32;3.92;;;22.70;69.50;;;;;;4947327;28;95315;-50
2021/04/08 06:26:42;;;;;;;5.53;3.95;;;22.60;69.40;;;;;;4950129;28;96645;-51
2021/04/08 06:29:13;;;;;;;5.03;4.15;;;22.60;69.10;;;;;;4943484;28;95785;-43
2021/04/08 06:31:51;;;;;;;4.60;4.20;;;22.60;67.70;;;;;;4942982;28;96297;-43
2021/04/08 06:34:21;;;;;;;7.18;4.00;;;22.60;68.30;;;;;;4934158;28;95849;-43
2021/04/08 06:36:52;;;;;;;4.70;3.95;;;22.70;68.10;;;;;;4932066;28;96074;-45
2021/04/08 06:39:22;;;;;;;5.20;4.20;;;22.60;68.00;;;;;;4946101;28;95714;-43
2021/04/08 06:41:51;;;;;;;7.10;3.95;;;22.70;67.30;;;;;;4938335;28;95287;-43
2021/04/08 06:44:24;;;;;;;4.23;3.83;;;22.60;66.80;;;;;;4935999;28;95300;-43
2021/04/08 06:47:02;;;;;;;6.65;4.15;;;22.60;67.30;;;;;;4934056;28;98134;-54
2021/04/08 06:49:44;;;;;;;6.50;4.30;;;22.60;67.30;;;;;;4939705;28;96914;-43
2021/04/08 06:52:18;;;;;;;5.70;4.03;;;22.60;67.60;;;;;;4947794;28;95566;-42
2021/04/08 06:54:47;;;;;;;5.65;4.13;;;22.60;67.50;;;;;;4950411;28;95780;-42
2021/04/08 06:57:19;;;;;;;5.90;4.22;;;22.60;67.40;;;;;;4942514;28;96431;-42
2021/04/08 06:59:49;;;;;;;5.57;3.88;;;22.60;67.10;;;;;;4946924;28;95755;-42
2021/04/08 07:02:22;;;;;;;7.47;4.20;;;22.60;66.10;;;;;;4946271;28;95483;-43
2021/04/08 07:04:52;;;;;;;4.85;4.00;;;22.50;66.30;;;;;;4949655;28;95802;-43
2021/04/08 07:07:22;;;;;;;5.15;3.97;;;22.50;67.20;;;;;;4950105;28;95931;-42
2021/04/08 07:09:52;;;;;;;6.07;3.97;;;22.50;67.80;;;;;;4946658;28;95887;-42
2021/04/08 07:12:22;;;;;;;6.10;4.25;;;22.50;68.20;;;;;;4945746;28;96010;-42
2021/04/08 07:14:55;;;;;;;5.20;4.03;;;22.50;68.60;;;;;;4949048;28;96829;-53
2021/04/08 07:17:26;;;;;;;5.93;4.30;;;22.50;68.80;;;;;;4942556;28;95872;-42
2021/04/08 07:19:58;;;;;;;5.18;3.90;;;22.50;68.90;;;;;;4949830;28;95819;-42
2021/04/08 07:22:28;;;;;;;5.10;4.07;;;22.50;69.40;;;;;;4945777;28;95584;-54
2021/04/08 07:24:58;;;;;;;7.38;4.15;;;22.50;69.70;;;;;;4942907;28;95786;-52
2021/04/08 07:27:34;;;;;;;4.80;3.83;;;22.50;69.80;;;;;;4935073;28;96481;-50
2021/04/08 07:30:06;;;;;;;7.57;4.43;;;22.50;70.10;;;;;;4945577;28;95871;-51
2021/04/08 07:32:42;;;;;;;5.43;4.45;;;22.50;70.10;;;;;;4946643;28;95632;-52
2021/04/08 07:35:16;;;;;;;5.15;3.83;;;22.50;70.40;;;;;;4949394;28;95756;-54
2021/04/08 07:37:57;;;;;;;5.97;4.05;;;22.50;70.40;;;;;;4945665;28;96697;-52
2021/04/08 07:40:28;;;;;;;4.70;3.90;;;22.50;70.20;;;;;;4949010;28;95948;-51
2021/04/08 07:43:11;;;;;;;4.80;3.70;;;22.50;70.40;;;;;;4941526;28;95956;-54
2021/04/08 07:45:42;;;;;;;5.10;4.20;;;22.50;70.50;;;;;;4944720;28;95780;-43
2021/04/08 07:48:14;;;;;;;4.20;3.80;;;22.60;70.40;;;;;;4939391;28;96024;-54
2021/04/08 07:50:57;;;;;;;10.02;3.83;;;22.50;70.40;;;;;;4943242;28;97116;-55
2021/04/08 07:53:27;;;;;;;3.90;3.55;;;22.60;70.20;;;;;;4939384;28;95316;-53
2021/04/08 07:55:56;;;;;;;3.97;3.40;;;22.60;70.20;;;;;;4937084;28;95555;-53
2021/04/08 07:58:26;;;;;;;4.40;3.40;;;22.60;70.20;;;;;;4942638;28;95950;-53
2021/04/08 08:00:55;;;;;;;6.22;3.72;;;22.70;70.20;;;;;;4933641;28;98098;-54
2021/04/08 08:03:33;;;;;;;3.88;3.35;;;22.60;70.10;;;;;;4936487;28;95624;-54
2021/04/08 08:06:03;;;;;;;3.85;3.55;;;22.70;70.20;;;;;;4935988;28;95711;-52
2021/04/08 08:08:41;;;;;;;4.13;3.80;;;22.70;70.10;;;;;;4941513;28;96460;-53
2021/04/08 08:11:17;;;;;;;3.58;3.28;;;22.70;70.20;;;;;;4942149;28;97982;-43
2021/04/08 08:13:53;;;;;;;4.88;3.80;;;22.70;70.30;;;;;;4948884;28;97165;-54
2021/04/08 08:16:31;;;;;;;3.63;3.33;;;22.70;70.10;;;;;;4931154;28;95983;-52
2021/04/08 08:19:02;;;;;;;4.68;3.65;;;22.70;70.20;;;;;;4939055;28;96201;-51
2021/04/08 08:21:37;;;;;;;4.43;3.35;;;22.70;70.20;;;;;;4950079;28;95319;-54
2021/04/08 08:24:13;;;;;;;5.28;3.67;;;22.70;70.30;;;;;;4947731;28;95649;-50
2021/04/08 08:26:46;;;;;;;6.00;3.63;;;22.70;70.30;;;;;;4947802;28;95264;-54
2021/04/08 08:29:23;;;;;;;4.40;3.40;;;22.70;70.30;;;;;;4959502;28;98059;-55
2021/04/08 08:31:57;;;;;;;4.28;3.88;;;22.70;70.20;;;;;;4932343;28;95352;-53
2021/04/08 08:34:34;;;;;;;3.45;3.15;;;22.70;70.30;;;;;;4935482;28;106058;-51
2021/04/08 08:37:09;;;;;;;3.90;3.03;;;22.70;70.40;;;;;;4942070;28;95401;-62
2021/04/08 08:39:41;;;;;;;3.80;3.50;;;22.70;70.30;;;;;;4940035;28;95948;-57
2021/04/08 08:42:15;;;;;;;4.45;3.53;;;22.70;70.40;;;;;;4941335;28;95475;-51
2021/04/08 08:44:46;;;;;;;3.70;3.40;;;22.70;70.40;;;;;;4944922;28;95264;-51
2021/04/08 08:47:26;;;;;;;3.65;3.35;;;22.70;70.50;;;;;;4931457;28;95874;-51
2021/04/08 08:50:01;;;;;;;3.45;3.15;;;22.70;70.50;;;;;;4932478;28;102473;-52
2021/04/08 08:52:35;;;;;;;3.38;3.08;;;22.70;70.50;;;;;;4940958;28;95328;-51
2021/04/08 08:55:10;;;;;;;3.70;3.40;;;22.70;70.50;;;;;;4942437;28;95875;-53
2021/04/08 08:57:41;;;;;;;3.85;3.45;;;22.70;70.60;;;;;;4947249;28;95532;-53
2021/04/08 09:00:15;;;;;;;3.50;3.20;;;22.70;70.60;;;;;;4943387;28;96423;-53
2021/04/08 09:02:46;;;;;;;3.50;3.20;;;22.70;70.60;;;;;;4940908;28;95930;-51
2021/04/08 09:05:19;;;;;;;4.03;3.47;;;22.70;70.60;;;;;;4936542;28;97219;-51
2021/04/08 09:07:52;;;;;;;3.55;3.20;;;22.70;70.60;;;;;;4938369;28;95986;-52
2021/04/08 09:10:44;;;;;;;3.45;3.25;;;22.70;70.60;;;;;;4940654;28;96869;-56
2021/04/08 09:13:14;;;;;;;4.47;3.42;;;22.70;70.60;;;;;;4936875;28;97813;-53
2021/04/08 09:15:44;;;;;;;2.80;2.60;;;22.70;70.60;;;;;;4934612;28;95944;-53
2021/04/08 09:18:19;;;;;;;4.38;3.03;;;22.70;70.60;;;;;;4936836;28;95967;-53
2021/04/08 09:20:49;;;;;;;3.35;3.05;;;22.70;70.70;;;;;;4944506;28;96633;-54
2021/04/08 09:23:24;;;;;;;3.28;2.97;;;22.70;70.70;;;;;;4934044;28;95383;-55
2021/04/08 09:25:58;;;;;;;3.40;3.10;;;22.70;70.80;;;;;;4938334;28;96214;-54
2021/04/08 09:28:40;;;;;;;3.75;3.40;;;22.70;70.70;;;;;;4947055;28;95846;-53
2021/04/08 09:31:25;;;;;;;3.28;2.97;;;22.70;71.30;;;;;;4955456;28;98860;-51
2021/04/08 09:33:57;;;;;;;3.40;3.17;;;22.70;70.70;;;;;;4946034;28;96214;-54
2021/04/08 09:36:35;;;;;;;3.38;3.13;;;22.70;70.70;;;;;;4932511;28;95688;-54
2021/04/08 09:39:05;;;;;;;10.32;3.38;;;22.70;70.80;;;;;;4936919;28;95240;-55
2021/04/08 09:41:51;;;;;;;5.32;3.17;;;22.60;64.20;;;;;;4937288;28;97443;-53
2021/04/08 09:44:23;;;;;;;7.68;3.92;;;22.10;52.50;;;;;;4940286;28;95256;-54
2021/04/08 09:47:02;;;;;;;7.50;4.13;;;21.60;47.70;;;;;;4930862;28;95788;-54
2021/04/08 09:49:42;;;;;;;4.85;4.05;;;21.40;51.90;;;;;;4934784;28;95842;-52
2021/04/08 09:52:14;;;;;;;9.63;4.33;;;21.40;56.80;;;;;;4932302;28;96669;-51
2021/04/08 09:55:02;;;;;;;4.32;3.25;;;21.30;55.00;;;;;;4961270;28;95652;-54
2021/04/08 09:57:37;;;;;;;6.40;3.63;;;21.30;56.70;;;;;;4930967;28;95915;-54
2021/04/08 10:00:12;;;;;;;3.15;2.78;;;21.30;55.40;;;;;;4931818;28;95477;-54
2021/04/08 10:03:05;;;;;;;5.93;3.08;;;21.30;53.40;;;;;;4932218;28;96014;-55
2021/04/08 10:05:40;;;;;;;5.38;3.55;;;21.20;54.50;;;;;;4957238;28;97089;-54
2021/04/08 10:08:10;;;;;;;4.93;3.55;;;21.20;52.70;;;;;;4930604;28;95696;-55
2021/04/08 10:10:43;;;;;;;4.90;3.30;;;21.10;55.00;;;;;;4939361;28;95360;-52
2021/04/08 10:13:28;;;;;;;5.97;3.65;;;21.00;57.40;;;;;;4928088;28;95913;-44
2021/04/08 10:16:00;;;;;;;6.82;3.63;;;21.30;59.80;;;;;;4929205;28;95850;-53
2021/04/08 10:18:33;;;;;;;8.93;3.85;;;21.30;55.40;;;;;;4932867;28;96238;-56
2021/04/08 10:21:07;;;;;;;9.52;3.72;;;20.90;57.00;;;;;;4934509;28;95861;-54
2021/04/08 10:23:38;;;;;;;11.00;3.92;;;20.80;57.70;;;;;;4935235;28;95892;-55
2021/04/08 10:26:16;;;;;;;11.02;4.15;;;20.60;56.90;;;;;;4968345;28;97318;-56
2021/04/08 10:28:57;;;;;;;7.45;4.00;;;20.40;58.80;;;;;;4929410;28;95602;-52
2021/04/08 10:31:35;;;;;;;7.70;3.15;;;20.30;58.00;;;;;;4949454;28;96021;-55
2021/04/08 10:34:16;;;;;;;10.00;4.00;;;20.40;59.80;;;;;;4934681;28;96255;-43
2021/04/08 10:36:54;;;;;;;10.95;3.58;;;20.40;58.90;;;;;;4937242;28;95819;-52
2021/04/08 10:39:28;;;;;;;5.90;3.78;;;20.30;60.30;;;;;;4933760;28;95641;-43
2021/04/08 10:42:01;;;;;;;6.72;4.13;;;20.20;60.70;;;;;;4934334;28;95993;-44
2021/04/08 10:44:40;;;;;;;8.13;4.05;;;20.00;61.20;;;;;;4933134;28;95972;-56
2021/04/08 10:47:20;;;;;;;11.60;4.75;;;20.00;62.40;;;;;;4925863;28;97431;-43
2021/04/08 10:50:00;;;;;;;9.98;4.25;;;19.80;62.40;;;;;;4929589;28;97978;-43
2021/04/08 10:52:35;;;;;;;6.97;3.55;;;19.70;62.20;;;;;;4933827;28;95287;-43
2021/04/08 10:55:11;;;;;;;8.55;4.20;;;19.80;63.70;;;;;;4929258;28;96816;-43
2021/04/08 10:57:42;;;;;;;11.32;5.18;;;20.00;62.40;;;;;;4930288;28;98327;-44
2021/04/08 11:00:17;;;;;;;17.98;5.32;;;20.00;62.90;;;;;;4957026;28;95904;-46
2021/04/08 11:02:47;;;;;;;8.05;4.43;;;20.20;64.00;;;;;;4931219;28;95666;-43
2021/04/08 11:05:20;;;;;;;;;;;20.30;65.80;;;;;;4933733;28;95829;-44
2021/04/08 11:07:54;;;;;;;13.65;5.10;;;20.50;66.60;;;;;;4933014;28;95246;-43
2021/04/08 11:10:29;;;;;;;17.85;5.07;;;20.60;62.20;;;;;;4934222;28;95835;-43
2021/04/08 11:13:01;;;;;;;11.40;5.40;;;20.20;62.50;;;;;;4933698;28;95461;-44
2021/04/08 11:15:35;;;;;;;9.57;5.00;;;19.90;57.40;;;;;;4932657;28;96324;-44
2021/04/08 11:18:13;;;;;;;15.10;6.45;;;19.70;58.00;;;;;;4931902;28;95862;-44
2021/04/08 11:20:46;;;;;;;14.00;5.78;;;19.80;61.10;;;;;;4929826;28;95841;-44
2021/04/08 11:23:23;;;;;;;15.75;6.43;;;19.90;60.00;;;;;;4933329;28;95386;-44
2021/04/08 11:26:04;;;;;;;10.73;6.38;;;20.00;61.40;;;;;;4931266;28;95862;-45
2021/04/08 11:28:42;;;;;;;15.23;7.50;;;20.10;61.30;;;;;;4930847;28;95788;-44
2021/04/08 11:31:15;;;;;;;13.63;6.80;;;20.20;62.00;;;;;;4928834;28;96539;-44
2021/04/08 11:33:57;;;;;;;14.13;7.32;;;20.20;61.10;;;;;;4939116;28;95863;-44
2021/04/08 11:36:34;;;;;;;11.27;6.63;;;20.20;60.70;;;;;;4933652;28;96397;-43
2021/04/08 11:39:11;;;;;;;11.23;6.65;;;20.20;62.70;;;;;;4943207;28;96421;-44
2021/04/08 11:41:40;;;;;;;9.85;6.65;;;20.30;62.30;;;;;;4935965;28;95852;-44
2021/04/08 11:44:23;;;;;;;11.68;6.63;;;20.30;61.40;;;;;;4935527;28;95710;-43
2021/04/08 11:46:54;;;;;;;8.82;7.07;;;20.40;62.50;;;;;;4930661;28;97630;-43
2021/04/08 11:49:26;;;;;;;12.05;7.38;;;20.20;61.80;;;;;;4954135;28;96908;-44
2021/04/08 11:52:10;;;;;;;14.13;7.38;;;20.30;64.20;;;;;;4929568;28;95598;-44
2021/04/08 11:55:08;;;;;;;11.82;6.97;;;20.30;63.90;;;;;;4928286;28;95688;-46
2021/04/08 11:57:54;;;;;;;13.07;6.95;;;20.40;64.10;;;;;;4933153;28;99012;-44
2021/04/08 12:00:28;;;;;;;11.57;6.72;;;20.40;63.90;;;;;;4930449;28;98699;-45
2021/04/08 12:03:11;;;;;;;11.52;6.82;;;20.30;64.70;;;;;;4934615;28;95782;-43
2021/04/08 12:05:41;;;;;;;16.95;7.53;;;20.20;64.20;;;;;;4931365;28;95621;-43
2021/04/08 12:08:14;;;;;;;;;;;19.90;65.40;;;;;;4929326;28;95943;-43
2021/04/08 12:10:45;;;;;;;8.70;6.47;;;20.10;65.20;;;;;;4964637;28;95477;-44
2021/04/08 12:13:21;;;;;;;13.05;6.57;;;20.00;65.00;;;;;;4926948;28;98255;-45
2021/04/08 12:15:51;;;;;;;9.18;6.25;;;19.80;65.40;;;;;;4925283;28;95913;-44
2021/04/08 12:18:25;;;;;;;11.90;7.00;;;19.80;66.80;;;;;;4940451;28;96102;-44
2021/04/08 12:20:56;;;;;;;11.98;7.38;;;19.90;67.00;;;;;;4937889;28;96015;-44
2021/04/08 12:23:34;;;;;;;9.00;6.57;;;20.00;67.30;;;;;;4933604;28;95813;-45
2021/04/08 12:26:06;;;;;;;12.18;7.18;;;20.10;67.00;;;;;;4945562;28;95859;-45
2021/04/08 12:28:40;;;;;;;10.93;7.03;;;19.90;65.90;;;;;;4928865;28;95833;-43
2021/04/08 12:31:11;;;;;;;15.07;7.45;;;19.70;67.70;;;;;;4937900;28;95773;-45
2021/04/08 12:33:42;;;;;;;17.08;7.72;;;19.60;67.70;;;;;;4931238;28;101232;-45
2021/04/08 12:36:14;;;;;;;15.32;7.15;;;19.40;69.80;;;;;;4931511;28;95888;-45
2021/04/08 12:38:44;;;;;;;13.98;6.70;;;19.10;69.40;;;;;;4931606;28;95901;-45
2021/04/08 12:41:16;;;;;;;15.35;7.28;;;19.00;69.40;;;;;;4936324;28;95377;-45
2021/04/08 12:43:46;;;;;;;11.45;6.85;;;18.80;71.40;;;;;;4926224;28;95792;-45
2021/04/08 12:46:16;;;;;;;11.57;6.93;;;19.00;72.10;;;;;;4928488;28;95904;-45
2021/04/08 12:48:48;;;;;;;13.57;6.90;;;19.20;70.90;;;;;;4939946;28;95907;-45
2021/04/08 12:51:20;;;;;;;17.25;6.97;;;19.30;70.70;;;;;;4952176;28;95839;-46
2021/04/08 12:53:50;;;;;;;8.93;6.00;;;19.20;70.00;;;;;;4932091;28;95789;-45
2021/04/08 12:56:19;;;;;;;10.50;6.40;;;19.00;70.80;;;;;;4937191;28;95781;-45
2021/04/08 12:58:48;;;;;;;13.15;6.88;;;18.80;71.70;;;;;;4936850;28;101608;-45
2021/04/08 13:01:18;;;;;;;9.40;5.85;;;19.00;70.80;;;;;;4935920;28;98636;-45
2021/04/08 13:03:49;;;;;;;9.10;5.93;;;18.90;71.50;;;;;;4949066;28;95830;-46
2021/04/08 13:06:19;;;;;;;10.68;6.45;;;18.70;71.80;;;;;;4937926;28;95814;-45
2021/04/08 13:08:52;;;;;;;15.35;6.45;;;18.60;72.50;;;;;;4936124;28;95904;-45
2021/04/08 13:11:23;;;;;;;9.85;6.30;;;18.50;73.20;;;;;;4942133;28;95849;-45
2021/04/08 13:14:07;;;;;;;9.32;6.22;;;18.40;72.90;;;;;;4937470;28;95824;-45
2021/04/08 13:16:36;;;;;;;10.38;6.30;;;18.40;72.90;;;;;;4932215;28;95683;-45
2021/04/08 13:19:07;;;;;;;9.35;6.75;;;18.50;74.40;;;;;;4934488;28;96602;-45